sensor_id;sensor_type;location;lat;lon;timestamp;P1;durP1;ratioP1;P2;durP2;ratioP2
63444;SDS011;49573;47.682;9.170;2023-04-09T00:02:23;15.45;;;10.75;;
63444;SDS011;49573;47.682;9.170;2023-04-09T00:07:56;15.07;;;10.68;;
63444;SDS011;49573;47.682;9.170;2023-04-09T00:10:42;15.80;;;11.00;;
63444;SDS011;49573;47.682;9.170;2023-04-09T00:13:29;16.75;;;11.15;;
63444;SDS011;49573;47.682;9.170;2023-04-09T00:16:16;15.43;;;10.60;;
63444;SDS011;49573;47.682;9.170;2023-04-09T00:19:02;16.45;;;10.60;;
63444;SDS011;49573;47.682;9.170;2023-04-09T00:21:48;15.57;;;11.07;;
63444;SDS011;49573;47.682;9.170;2023-04-09T00:24:35;13.90;;;10.20;;
63444;SDS011;49573;47.682;9.170;2023-04-09T00:27:21;15.38;;;10.73;;
63444;SDS011;49573;47.682;9.170;2023-04-09T00:30:07;15.32;;;10.82;;
63444;SDS011;49573;47.682;9.170;2023-04-09T00:32:55;14.77;;;10.50;;
63444;SDS011;49573;47.682;9.170;2023-04-09T00:35:41;15.27;;;11.10;;
63444;SDS011;49573;47.682;9.170;2023-04-09T00:38:27;16.58;;;11.40;;
63444;SDS011;49573;47.682;9.170;2023-04-09T00:41:13;19.13;;;12.02;;
63444;SDS011;49573;47.682;9.170;2023-04-09T00:43:59;15.60;;;10.73;;
63444;SDS011;49573;47.682;9.170;2023-04-09T00:46:45;17.65;;;10.88;;
63444;SDS011;49573;47.682;9.170;2023-04-09T00:49:33;16.45;;;11.00;;
63444;SDS011;49573;47.682;9.170;2023-04-09T00:52:19;16.00;;;11.30;;
63444;SDS011;49573;47.682;9.170;2023-04-09T00:55:06;17.60;;;12.00;;
63444;SDS011;49573;47.682;9.170;2023-04-09T00:57:53;17.55;;;11.38;;
63444;SDS011;49573;47.682;9.170;2023-04-09T01:00:40;17.52;;;12.55;;
63444;SDS011;49573;47.682;9.170;2023-04-09T01:03:26;17.55;;;11.07;;
63444;SDS011;49573;47.682;9.170;2023-04-09T01:06:16;17.03;;;11.70;;
63444;SDS011;49573;47.682;9.170;2023-04-09T01:09:13;16.00;;;10.30;;
63444;SDS011;49573;47.682;9.170;2023-04-09T01:12:08;18.30;;;11.70;;
63444;SDS011;49573;47.682;9.170;2023-04-09T01:14:58;17.02;;;11.60;;
63444;SDS011;49573;47.682;9.170;2023-04-09T01:17:51;17.08;;;10.95;;
63444;SDS011;49573;47.682;9.170;2023-04-09T01:20:41;16.35;;;10.38;;
63444;SDS011;49573;47.682;9.170;2023-04-09T01:23:34;17.00;;;10.90;;
63444;SDS011;49573;47.682;9.170;2023-04-09T01:26:34;16.73;;;11.02;;
63444;SDS011;49573;47.682;9.170;2023-04-09T01:29:30;16.95;;;11.38;;
63444;SDS011;49573;47.682;9.170;2023-04-09T01:32:18;16.17;;;10.85;;
63444;SDS011;49573;47.682;9.170;2023-04-09T01:35:05;16.33;;;10.65;;
63444;SDS011;49573;47.682;9.170;2023-04-09T01:37:52;16.08;;;10.43;;
63444;SDS011;49573;47.682;9.170;2023-04-09T01:43:26;17.58;;;10.80;;
63444;SDS011;49573;47.682;9.170;2023-04-09T01:46:15;17.40;;;10.75;;
63444;SDS011;49573;47.682;9.170;2023-04-09T01:49:02;17.95;;;10.80;;
63444;SDS011;49573;47.682;9.170;2023-04-09T01:51:49;16.27;;;10.40;;
63444;SDS011;49573;47.682;9.170;2023-04-09T01:54:35;16.80;;;10.55;;
63444;SDS011;49573;47.682;9.170;2023-04-09T01:57:22;17.80;;;11.65;;
63444;SDS011;49573;47.682;9.170;2023-04-09T02:00:08;17.20;;;11.18;;
63444;SDS011;49573;47.682;9.170;2023-04-09T02:02:57;18.33;;;11.98;;
63444;SDS011;49573;47.682;9.170;2023-04-09T02:05:49;15.52;;;10.32;;
63444;SDS011;49573;47.682;9.170;2023-04-09T02:08:40;17.38;;;10.80;;
63444;SDS011;49573;47.682;9.170;2023-04-09T02:11:28;16.38;;;11.23;;
63444;SDS011;49573;47.682;9.170;2023-04-09T02:14:17;16.75;;;11.43;;
63444;SDS011;49573;47.682;9.170;2023-04-09T02:17:06;17.65;;;11.63;;
63444;SDS011;49573;47.682;9.170;2023-04-09T02:19:53;19.63;;;11.63;;
63444;SDS011;49573;47.682;9.170;2023-04-09T02:22:39;17.42;;;11.35;;
63444;SDS011;49573;47.682;9.170;2023-04-09T02:25:25;17.92;;;11.77;;
63444;SDS011;49573;47.682;9.170;2023-04-09T02:28:12;16.38;;;11.27;;
63444;SDS011;49573;47.682;9.170;2023-04-09T02:30:58;17.23;;;11.45;;
63444;SDS011;49573;47.682;9.170;2023-04-09T02:33:44;16.92;;;11.18;;
63444;SDS011;49573;47.682;9.170;2023-04-09T02:36:31;17.13;;;10.35;;
63444;SDS011;49573;47.682;9.170;2023-04-09T02:39:17;17.95;;;11.15;;
63444;SDS011;49573;47.682;9.170;2023-04-09T02:42:03;19.77;;;12.00;;
63444;SDS011;49573;47.682;9.170;2023-04-09T02:44:52;17.88;;;10.95;;
63444;SDS011;49573;47.682;9.170;2023-04-09T02:47:38;18.63;;;11.85;;
63444;SDS011;49573;47.682;9.170;2023-04-09T02:50:24;19.70;;;12.57;;
63444;SDS011;49573;47.682;9.170;2023-04-09T02:53:11;18.83;;;12.18;;
63444;SDS011;49573;47.682;9.170;2023-04-09T02:55:57;20.90;;;12.98;;
63444;SDS011;49573;47.682;9.170;2023-04-09T02:58:43;19.17;;;11.77;;
63444;SDS011;49573;47.682;9.170;2023-04-09T03:01:29;20.25;;;13.25;;
63444;SDS011;49573;47.682;9.170;2023-04-09T03:04:15;18.65;;;12.15;;
63444;SDS011;49573;47.682;9.170;2023-04-09T03:07:01;18.83;;;12.13;;
63444;SDS011;49573;47.682;9.170;2023-04-09T03:09:49;17.88;;;10.95;;
63444;SDS011;49573;47.682;9.170;2023-04-09T03:12:35;19.88;;;12.35;;
63444;SDS011;49573;47.682;9.170;2023-04-09T03:15:21;17.90;;;11.93;;
63444;SDS011;49573;47.682;9.170;2023-04-09T03:18:07;16.20;;;10.50;;
63444;SDS011;49573;47.682;9.170;2023-04-09T03:20:53;17.63;;;11.05;;
63444;SDS011;49573;47.682;9.170;2023-04-09T03:23:39;19.87;;;12.63;;
63444;SDS011;49573;47.682;9.170;2023-04-09T03:26:27;19.00;;;11.88;;
63444;SDS011;49573;47.682;9.170;2023-04-09T03:29:13;18.33;;;11.15;;
63444;SDS011;49573;47.682;9.170;2023-04-09T03:31:59;18.33;;;11.32;;
63444;SDS011;49573;47.682;9.170;2023-04-09T03:34:45;17.30;;;10.98;;
63444;SDS011;49573;47.682;9.170;2023-04-09T03:37:31;17.45;;;11.35;;
63444;SDS011;49573;47.682;9.170;2023-04-09T03:40:17;18.13;;;11.30;;
63444;SDS011;49573;47.682;9.170;2023-04-09T03:43:04;17.83;;;11.07;;
63444;SDS011;49573;47.682;9.170;2023-04-09T03:45:50;19.63;;;12.27;;
63444;SDS011;49573;47.682;9.170;2023-04-09T03:48:36;19.85;;;11.90;;
63444;SDS011;49573;47.682;9.170;2023-04-09T03:51:22;20.67;;;12.45;;
63444;SDS011;49573;47.682;9.170;2023-04-09T03:54:08;20.42;;;12.50;;
63444;SDS011;49573;47.682;9.170;2023-04-09T03:56:54;17.77;;;11.63;;
63444;SDS011;49573;47.682;9.170;2023-04-09T03:59:42;20.80;;;12.68;;
63444;SDS011;49573;47.682;9.170;2023-04-09T04:02:28;19.48;;;12.55;;
63444;SDS011;49573;47.682;9.170;2023-04-09T04:05:17;19.67;;;12.57;;
63444;SDS011;49573;47.682;9.170;2023-04-09T04:08:03;19.35;;;10.93;;
63444;SDS011;49573;47.682;9.170;2023-04-09T04:10:50;18.95;;;11.30;;
63444;SDS011;49573;47.682;9.170;2023-04-09T04:13:36;19.23;;;11.02;;
63444;SDS011;49573;47.682;9.170;2023-04-09T04:16:23;18.65;;;11.80;;
63444;SDS011;49573;47.682;9.170;2023-04-09T04:19:09;21.15;;;12.07;;
63444;SDS011;49573;47.682;9.170;2023-04-09T04:21:55;19.80;;;11.83;;
63444;SDS011;49573;47.682;9.170;2023-04-09T04:24:41;20.67;;;12.90;;
63444;SDS011;49573;47.682;9.170;2023-04-09T04:27:27;18.17;;;10.82;;
63444;SDS011;49573;47.682;9.170;2023-04-09T04:30:14;20.40;;;11.48;;
63444;SDS011;49573;47.682;9.170;2023-04-09T04:33:01;20.03;;;12.57;;
63444;SDS011;49573;47.682;9.170;2023-04-09T04:35:47;17.55;;;10.65;;
63444;SDS011;49573;47.682;9.170;2023-04-09T04:38:33;17.45;;;10.73;;
63444;SDS011;49573;47.682;9.170;2023-04-09T04:41:20;20.27;;;12.00;;
63444;SDS011;49573;47.682;9.170;2023-04-09T04:44:06;19.55;;;11.35;;
63444;SDS011;49573;47.682;9.170;2023-04-09T04:46:52;19.98;;;11.90;;
63444;SDS011;49573;47.682;9.170;2023-04-09T04:49:39;19.25;;;11.73;;
63444;SDS011;49573;47.682;9.170;2023-04-09T04:52:25;20.42;;;12.30;;
63444;SDS011;49573;47.682;9.170;2023-04-09T04:55:11;20.67;;;13.02;;
63444;SDS011;49573;47.682;9.170;2023-04-09T04:57:58;22.17;;;13.05;;
63444;SDS011;49573;47.682;9.170;2023-04-09T05:00:44;20.33;;;12.07;;
63444;SDS011;49573;47.682;9.170;2023-04-09T05:03:30;20.85;;;11.90;;
63444;SDS011;49573;47.682;9.170;2023-04-09T05:06:18;22.88;;;13.10;;
63444;SDS011;49573;47.682;9.170;2023-04-09T05:09:05;20.77;;;12.60;;
63444;SDS011;49573;47.682;9.170;2023-04-09T05:11:51;21.40;;;12.90;;
63444;SDS011;49573;47.682;9.170;2023-04-09T05:14:37;21.17;;;12.02;;
63444;SDS011;49573;47.682;9.170;2023-04-09T05:17:24;22.05;;;12.43;;
63444;SDS011;49573;47.682;9.170;2023-04-09T05:20:10;20.17;;;11.60;;
63444;SDS011;49573;47.682;9.170;2023-04-09T05:22:58;20.83;;;12.68;;
63444;SDS011;49573;47.682;9.170;2023-04-09T05:25:47;22.92;;;13.23;;
63444;SDS011;49573;47.682;9.170;2023-04-09T05:28:33;21.90;;;13.32;;
63444;SDS011;49573;47.682;9.170;2023-04-09T05:31:20;22.35;;;12.75;;
63444;SDS011;49573;47.682;9.170;2023-04-09T05:34:06;19.60;;;12.07;;
63444;SDS011;49573;47.682;9.170;2023-04-09T05:36:53;23.95;;;12.60;;
63444;SDS011;49573;47.682;9.170;2023-04-09T05:39:41;22.48;;;12.77;;
63444;SDS011;49573;47.682;9.170;2023-04-09T05:42:27;24.42;;;14.48;;
63444;SDS011;49573;47.682;9.170;2023-04-09T05:45:14;24.95;;;14.20;;
63444;SDS011;49573;47.682;9.170;2023-04-09T05:48:00;23.60;;;13.38;;
63444;SDS011;49573;47.682;9.170;2023-04-09T05:50:48;24.20;;;14.60;;
63444;SDS011;49573;47.682;9.170;2023-04-09T05:53:35;23.20;;;13.18;;
63444;SDS011;49573;47.682;9.170;2023-04-09T05:56:23;24.77;;;13.65;;
63444;SDS011;49573;47.682;9.170;2023-04-09T05:59:09;22.50;;;14.02;;
63444;SDS011;49573;47.682;9.170;2023-04-09T06:01:56;24.30;;;13.68;;
63444;SDS011;49573;47.682;9.170;2023-04-09T06:04:42;26.38;;;14.38;;
63444;SDS011;49573;47.682;9.170;2023-04-09T06:07:28;24.35;;;13.65;;
63444;SDS011;49573;47.682;9.170;2023-04-09T06:10:15;22.45;;;13.45;;
63444;SDS011;49573;47.682;9.170;2023-04-09T06:13:03;22.23;;;13.63;;
63444;SDS011;49573;47.682;9.170;2023-04-09T06:15:50;23.38;;;14.05;;
63444;SDS011;49573;47.682;9.170;2023-04-09T06:18:37;23.10;;;14.13;;
63444;SDS011;49573;47.682;9.170;2023-04-09T06:21:23;22.77;;;13.63;;
63444;SDS011;49573;47.682;9.170;2023-04-09T06:24:09;22.58;;;13.95;;
63444;SDS011;49573;47.682;9.170;2023-04-09T06:26:56;24.33;;;15.70;;
63444;SDS011;49573;47.682;9.170;2023-04-09T06:29:43;24.05;;;14.55;;
63444;SDS011;49573;47.682;9.170;2023-04-09T06:32:30;20.58;;;12.75;;
63444;SDS011;49573;47.682;9.170;2023-04-09T06:35:16;21.88;;;13.68;;
63444;SDS011;49573;47.682;9.170;2023-04-09T06:38:03;23.65;;;14.25;;
63444;SDS011;49573;47.682;9.170;2023-04-09T06:40:49;21.02;;;12.98;;
63444;SDS011;49573;47.682;9.170;2023-04-09T06:43:36;22.08;;;12.90;;
63444;SDS011;49573;47.682;9.170;2023-04-09T06:46:24;21.85;;;13.05;;
63444;SDS011;49573;47.682;9.170;2023-04-09T06:49:10;22.73;;;13.00;;
63444;SDS011;49573;47.682;9.170;2023-04-09T06:51:56;21.13;;;12.90;;
63444;SDS011;49573;47.682;9.170;2023-04-09T06:54:43;20.42;;;12.15;;
63444;SDS011;49573;47.682;9.170;2023-04-09T06:57:30;19.80;;;11.68;;
63444;SDS011;49573;47.682;9.170;2023-04-09T07:00:16;18.52;;;11.60;;
63444;SDS011;49573;47.682;9.170;2023-04-09T07:03:04;20.15;;;12.43;;
63444;SDS011;49573;47.682;9.170;2023-04-09T07:05:53;18.30;;;11.52;;
63444;SDS011;49573;47.682;9.170;2023-04-09T07:08:39;20.17;;;12.27;;
63444;SDS011;49573;47.682;9.170;2023-04-09T07:11:26;20.00;;;12.38;;
63444;SDS011;49573;47.682;9.170;2023-04-09T07:14:12;20.90;;;12.90;;
63444;SDS011;49573;47.682;9.170;2023-04-09T07:16:58;19.45;;;12.45;;
63444;SDS011;49573;47.682;9.170;2023-04-09T07:19:46;23.42;;;13.27;;
63444;SDS011;49573;47.682;9.170;2023-04-09T07:22:34;21.15;;;12.75;;
63444;SDS011;49573;47.682;9.170;2023-04-09T07:25:21;18.88;;;12.27;;
63444;SDS011;49573;47.682;9.170;2023-04-09T07:28:07;19.95;;;13.18;;
63444;SDS011;49573;47.682;9.170;2023-04-09T07:30:54;18.95;;;12.20;;
63444;SDS011;49573;47.682;9.170;2023-04-09T07:33:40;21.02;;;13.40;;
63444;SDS011;49573;47.682;9.170;2023-04-09T07:36:28;18.60;;;11.90;;
63444;SDS011;49573;47.682;9.170;2023-04-09T07:39:16;19.40;;;12.27;;
63444;SDS011;49573;47.682;9.170;2023-04-09T07:42:02;21.52;;;12.55;;
63444;SDS011;49573;47.682;9.170;2023-04-09T07:44:49;19.58;;;12.48;;
63444;SDS011;49573;47.682;9.170;2023-04-09T07:47:35;19.38;;;12.25;;
63444;SDS011;49573;47.682;9.170;2023-04-09T07:50:22;19.80;;;12.10;;
63444;SDS011;49573;47.682;9.170;2023-04-09T07:53:10;19.52;;;12.20;;
63444;SDS011;49573;47.682;9.170;2023-04-09T07:55:56;18.30;;;11.98;;
63444;SDS011;49573;47.682;9.170;2023-04-09T07:58:43;18.80;;;12.05;;
63444;SDS011;49573;47.682;9.170;2023-04-09T08:01:29;20.38;;;12.90;;
63444;SDS011;49573;47.682;9.170;2023-04-09T08:04:16;18.20;;;11.93;;
63444;SDS011;49573;47.682;9.170;2023-04-09T08:07:02;20.20;;;12.45;;
63444;SDS011;49573;47.682;9.170;2023-04-09T08:09:50;18.48;;;11.73;;
63444;SDS011;49573;47.682;9.170;2023-04-09T08:12:36;17.60;;;11.85;;
63444;SDS011;49573;47.682;9.170;2023-04-09T08:15:23;18.33;;;12.20;;
63444;SDS011;49573;47.682;9.170;2023-04-09T08:18:09;20.52;;;12.38;;
63444;SDS011;49573;47.682;9.170;2023-04-09T08:20:56;18.92;;;12.38;;
63444;SDS011;49573;47.682;9.170;2023-04-09T08:23:42;19.70;;;12.40;;
63444;SDS011;49573;47.682;9.170;2023-04-09T08:26:30;19.42;;;12.80;;
63444;SDS011;49573;47.682;9.170;2023-04-09T08:29:17;17.08;;;11.23;;
63444;SDS011;49573;47.682;9.170;2023-04-09T08:32:03;17.98;;;11.73;;
63444;SDS011;49573;47.682;9.170;2023-04-09T08:34:50;18.00;;;11.88;;
63444;SDS011;49573;47.682;9.170;2023-04-09T08:37:36;17.80;;;11.23;;
63444;SDS011;49573;47.682;9.170;2023-04-09T08:43:13;15.48;;;10.23;;
63444;SDS011;49573;47.682;9.170;2023-04-09T08:46:00;16.95;;;11.88;;
63444;SDS011;49573;47.682;9.170;2023-04-09T08:48:48;15.80;;;10.80;;
63444;SDS011;49573;47.682;9.170;2023-04-09T08:54:21;17.88;;;11.35;;
63444;SDS011;49573;47.682;9.170;2023-04-09T08:57:10;17.08;;;11.77;;
63444;SDS011;49573;47.682;9.170;2023-04-09T08:59:58;16.65;;;11.20;;
63444;SDS011;49573;47.682;9.170;2023-04-09T09:03:00;16.52;;;10.68;;
63444;SDS011;49573;47.682;9.170;2023-04-09T09:05:48;17.30;;;11.82;;
63444;SDS011;49573;47.682;9.170;2023-04-09T09:08:34;17.50;;;11.35;;
63444;SDS011;49573;47.682;9.170;2023-04-09T09:11:24;18.08;;;12.43;;
63444;SDS011;49573;47.682;9.170;2023-04-09T09:14:12;18.85;;;12.27;;
63444;SDS011;49573;47.682;9.170;2023-04-09T09:17:03;18.15;;;11.27;;
63444;SDS011;49573;47.682;9.170;2023-04-09T09:19:50;16.50;;;11.43;;
63444;SDS011;49573;47.682;9.170;2023-04-09T09:22:47;16.92;;;11.40;;
63444;SDS011;49573;47.682;9.170;2023-04-09T09:25:36;16.48;;;11.43;;
63444;SDS011;49573;47.682;9.170;2023-04-09T09:28:23;17.55;;;12.55;;
63444;SDS011;49573;47.682;9.170;2023-04-09T09:31:21;16.17;;;10.50;;
63444;SDS011;49573;47.682;9.170;2023-04-09T09:34:09;16.25;;;10.80;;
63444;SDS011;49573;47.682;9.170;2023-04-09T09:36:55;15.50;;;10.68;;
63444;SDS011;49573;47.682;9.170;2023-04-09T09:39:42;16.45;;;10.65;;
63444;SDS011;49573;47.682;9.170;2023-04-09T09:42:31;15.77;;;11.10;;
63444;SDS011;49573;47.682;9.170;2023-04-09T09:45:18;14.77;;;11.10;;
63444;SDS011;49573;47.682;9.170;2023-04-09T09:48:04;16.27;;;10.70;;
63444;SDS011;49573;47.682;9.170;2023-04-09T09:50:52;17.75;;;11.40;;
63444;SDS011;49573;47.682;9.170;2023-04-09T09:53:39;15.80;;;10.90;;
63444;SDS011;49573;47.682;9.170;2023-04-09T09:56:28;14.32;;;10.57;;
63444;SDS011;49573;47.682;9.170;2023-04-09T09:59:18;14.32;;;10.27;;
63444;SDS011;49573;47.682;9.170;2023-04-09T10:02:09;14.85;;;10.32;;
63444;SDS011;49573;47.682;9.170;2023-04-09T10:05:00;15.23;;;10.57;;
63444;SDS011;49573;47.682;9.170;2023-04-09T10:07:48;14.55;;;10.45;;
63444;SDS011;49573;47.682;9.170;2023-04-09T10:10:35;15.68;;;10.70;;
63444;SDS011;49573;47.682;9.170;2023-04-09T10:13:23;15.15;;;10.25;;
63444;SDS011;49573;47.682;9.170;2023-04-09T10:16:13;13.30;;;9.27;;
63444;SDS011;49573;47.682;9.170;2023-04-09T10:19:01;13.88;;;9.93;;
63444;SDS011;49573;47.682;9.170;2023-04-09T10:21:49;14.57;;;10.57;;
63444;SDS011;49573;47.682;9.170;2023-04-09T10:24:41;12.05;;;8.90;;
63444;SDS011;49573;47.682;9.170;2023-04-09T10:27:27;13.27;;;9.73;;
63444;SDS011;49573;47.682;9.170;2023-04-09T10:33:18;13.82;;;9.55;;
63444;SDS011;49573;47.682;9.170;2023-04-09T10:36:11;12.48;;;9.23;;
63444;SDS011;49573;47.682;9.170;2023-04-09T10:41:45;12.93;;;8.95;;
63444;SDS011;49573;47.682;9.170;2023-04-09T10:44:31;13.63;;;9.15;;
63444;SDS011;49573;47.682;9.170;2023-04-09T10:47:29;12.57;;;8.80;;
63444;SDS011;49573;47.682;9.170;2023-04-09T10:50:17;12.43;;;9.20;;
63444;SDS011;49573;47.682;9.170;2023-04-09T10:53:04;12.65;;;9.13;;
63444;SDS011;49573;47.682;9.170;2023-04-09T10:55:51;14.13;;;9.73;;
63444;SDS011;49573;47.682;9.170;2023-04-09T11:01:25;11.40;;;8.05;;
63444;SDS011;49573;47.682;9.170;2023-04-09T11:04:15;13.02;;;8.48;;
63444;SDS011;49573;47.682;9.170;2023-04-09T11:07:06;10.88;;;8.15;;
63444;SDS011;49573;47.682;9.170;2023-04-09T11:09:52;11.57;;;7.95;;
63444;SDS011;49573;47.682;9.170;2023-04-09T11:12:39;10.43;;;8.43;;
63444;SDS011;49573;47.682;9.170;2023-04-09T11:15:25;9.15;;;7.15;;
63444;SDS011;49573;47.682;9.170;2023-04-09T11:18:19;13.57;;;9.65;;
63444;SDS011;49573;47.682;9.170;2023-04-09T11:21:06;9.80;;;7.57;;
63444;SDS011;49573;47.682;9.170;2023-04-09T11:23:54;11.10;;;8.15;;
63444;SDS011;49573;47.682;9.170;2023-04-09T11:26:40;11.00;;;7.70;;
63444;SDS011;49573;47.682;9.170;2023-04-09T11:29:27;9.10;;;6.53;;
63444;SDS011;49573;47.682;9.170;2023-04-09T11:32:13;8.77;;;6.75;;
63444;SDS011;49573;47.682;9.170;2023-04-09T11:35:01;8.93;;;6.57;;
63444;SDS011;49573;47.682;9.170;2023-04-09T11:37:48;9.88;;;6.90;;
63444;SDS011;49573;47.682;9.170;2023-04-09T11:40:36;9.48;;;6.90;;
63444;SDS011;49573;47.682;9.170;2023-04-09T11:43:28;10.43;;;7.05;;
63444;SDS011;49573;47.682;9.170;2023-04-09T11:46:14;8.65;;;6.20;;
63444;SDS011;49573;47.682;9.170;2023-04-09T11:49:01;8.93;;;6.50;;
63444;SDS011;49573;47.682;9.170;2023-04-09T11:54:36;10.05;;;7.10;;
63444;SDS011;49573;47.682;9.170;2023-04-09T11:57:22;9.18;;;6.88;;
63444;SDS011;49573;47.682;9.170;2023-04-09T12:00:09;9.10;;;6.95;;
63444;SDS011;49573;47.682;9.170;2023-04-09T12:03:00;12.90;;;6.68;;
63444;SDS011;49573;47.682;9.170;2023-04-09T12:05:47;8.35;;;6.38;;
63444;SDS011;49573;47.682;9.170;2023-04-09T12:08:33;8.77;;;6.25;;
63444;SDS011;49573;47.682;9.170;2023-04-09T12:11:26;8.18;;;6.38;;
63444;SDS011;49573;47.682;9.170;2023-04-09T12:14:12;8.77;;;6.68;;
63444;SDS011;49573;47.682;9.170;2023-04-09T12:17:00;7.13;;;5.30;;
63444;SDS011;49573;47.682;9.170;2023-04-09T12:19:47;7.72;;;5.78;;
63444;SDS011;49573;47.682;9.170;2023-04-09T12:22:33;6.20;;;4.50;;
63444;SDS011;49573;47.682;9.170;2023-04-09T12:25:22;5.43;;;4.00;;
63444;SDS011;49573;47.682;9.170;2023-04-09T12:28:10;5.60;;;4.30;;
63444;SDS011;49573;47.682;9.170;2023-04-09T12:30:59;5.50;;;4.22;;
63444;SDS011;49573;47.682;9.170;2023-04-09T12:33:45;5.67;;;4.17;;
63444;SDS011;49573;47.682;9.170;2023-04-09T12:36:31;6.43;;;4.30;;
63444;SDS011;49573;47.682;9.170;2023-04-09T12:39:17;5.30;;;3.70;;
63444;SDS011;49573;47.682;9.170;2023-04-09T12:42:05;5.88;;;4.00;;
63444;SDS011;49573;47.682;9.170;2023-04-09T12:44:52;5.55;;;3.97;;
63444;SDS011;49573;47.682;9.170;2023-04-09T12:47:38;5.95;;;3.90;;
63444;SDS011;49573;47.682;9.170;2023-04-09T12:50:24;5.35;;;3.97;;
63444;SDS011;49573;47.682;9.170;2023-04-09T12:53:10;5.07;;;3.70;;
63444;SDS011;49573;47.682;9.170;2023-04-09T12:55:56;4.68;;;3.42;;
63444;SDS011;49573;47.682;9.170;2023-04-09T12:58:42;5.05;;;4.13;;
63444;SDS011;49573;47.682;9.170;2023-04-09T13:01:30;5.27;;;3.90;;
63444;SDS011;49573;47.682;9.170;2023-04-09T13:04:16;4.63;;;3.33;;
63444;SDS011;49573;47.682;9.170;2023-04-09T13:07:02;4.45;;;3.17;;
63444;SDS011;49573;47.682;9.170;2023-04-09T13:09:48;4.72;;;3.50;;
63444;SDS011;49573;47.682;9.170;2023-04-09T13:12:34;5.00;;;3.15;;
63444;SDS011;49573;47.682;9.170;2023-04-09T13:15:21;4.47;;;3.38;;
63444;SDS011;49573;47.682;9.170;2023-04-09T13:18:08;5.15;;;3.25;;
63444;SDS011;49573;47.682;9.170;2023-04-09T13:20:55;4.40;;;3.33;;
63444;SDS011;49573;47.682;9.170;2023-04-09T13:23:41;4.57;;;3.47;;
63444;SDS011;49573;47.682;9.170;2023-04-09T13:26:27;4.82;;;3.35;;
63444;SDS011;49573;47.682;9.170;2023-04-09T13:29:13;5.07;;;3.20;;
63444;SDS011;49573;47.682;9.170;2023-04-09T13:32:00;4.53;;;3.17;;
63444;SDS011;49573;47.682;9.170;2023-04-09T13:34:52;3.78;;;3.00;;
63444;SDS011;49573;47.682;9.170;2023-04-09T13:37:40;4.57;;;3.50;;
63444;SDS011;49573;47.682;9.170;2023-04-09T13:43:12;4.53;;;3.30;;
63444;SDS011;49573;47.682;9.170;2023-04-09T13:45:58;4.18;;;3.08;;
63444;SDS011;49573;47.682;9.170;2023-04-09T13:48:45;4.45;;;3.30;;
63444;SDS011;49573;47.682;9.170;2023-04-09T13:51:32;3.78;;;3.00;;
63444;SDS011;49573;47.682;9.170;2023-04-09T13:54:18;4.68;;;3.47;;
63444;SDS011;49573;47.682;9.170;2023-04-09T13:57:05;4.18;;;3.03;;
63444;SDS011;49573;47.682;9.170;2023-04-09T13:59:51;3.92;;;3.08;;
63444;SDS011;49573;47.682;9.170;2023-04-09T14:02:37;4.22;;;2.97;;
63444;SDS011;49573;47.682;9.170;2023-04-09T14:05:23;4.97;;;3.67;;
63444;SDS011;49573;47.682;9.170;2023-04-09T14:08:11;4.13;;;3.05;;
63444;SDS011;49573;47.682;9.170;2023-04-09T14:10:57;3.75;;;2.92;;
63444;SDS011;49573;47.682;9.170;2023-04-09T14:13:43;3.65;;;2.75;;
63444;SDS011;49573;47.682;9.170;2023-04-09T14:16:29;5.00;;;2.97;;
63444;SDS011;49573;47.682;9.170;2023-04-09T14:19:15;3.45;;;2.70;;
63444;SDS011;49573;47.682;9.170;2023-04-09T14:22:01;3.75;;;2.80;;
63444;SDS011;49573;47.682;9.170;2023-04-09T14:24:49;4.72;;;2.83;;
63444;SDS011;49573;47.682;9.170;2023-04-09T14:27:35;3.50;;;2.65;;
63444;SDS011;49573;47.682;9.170;2023-04-09T14:30:21;3.90;;;2.95;;
63444;SDS011;49573;47.682;9.170;2023-04-09T14:33:07;4.13;;;3.13;;
63444;SDS011;49573;47.682;9.170;2023-04-09T14:35:54;4.45;;;3.38;;
63444;SDS011;49573;47.682;9.170;2023-04-09T14:38:43;4.50;;;3.00;;
63444;SDS011;49573;47.682;9.170;2023-04-09T14:41:31;3.38;;;2.67;;
63444;SDS011;49573;47.682;9.170;2023-04-09T14:44:18;4.40;;;3.15;;
63444;SDS011;49573;47.682;9.170;2023-04-09T14:47:04;3.25;;;2.42;;
63444;SDS011;49573;47.682;9.170;2023-04-09T14:52:37;3.58;;;2.70;;
63444;SDS011;49573;47.682;9.170;2023-04-09T14:55:23;3.15;;;2.50;;
63444;SDS011;49573;47.682;9.170;2023-04-09T14:58:11;3.45;;;2.78;;
63444;SDS011;49573;47.682;9.170;2023-04-09T15:00:57;4.60;;;2.80;;
63444;SDS011;49573;47.682;9.170;2023-04-09T15:03:43;3.38;;;2.70;;
63444;SDS011;49573;47.682;9.170;2023-04-09T15:06:29;3.40;;;2.67;;
63444;SDS011;49573;47.682;9.170;2023-04-09T15:09:16;3.30;;;2.40;;
63444;SDS011;49573;47.682;9.170;2023-04-09T15:12:02;3.50;;;2.53;;
63444;SDS011;49573;47.682;9.170;2023-04-09T15:14:49;3.17;;;2.50;;
63444;SDS011;49573;47.682;9.170;2023-04-09T15:17:36;3.85;;;2.65;;
63444;SDS011;49573;47.682;9.170;2023-04-09T15:20:22;4.20;;;2.60;;
63444;SDS011;49573;47.682;9.170;2023-04-09T15:23:08;3.08;;;2.50;;
63444;SDS011;49573;47.682;9.170;2023-04-09T15:25:55;3.80;;;2.40;;
63444;SDS011;49573;47.682;9.170;2023-04-09T15:28:41;3.10;;;2.50;;
63444;SDS011;49573;47.682;9.170;2023-04-09T15:31:28;3.92;;;2.40;;
63444;SDS011;49573;47.682;9.170;2023-04-09T15:34:15;3.55;;;2.78;;
63444;SDS011;49573;47.682;9.170;2023-04-09T15:37:01;3.20;;;2.05;;
63444;SDS011;49573;47.682;9.170;2023-04-09T15:39:47;3.20;;;2.40;;
63444;SDS011;49573;47.682;9.170;2023-04-09T15:42:33;3.03;;;2.47;;
63444;SDS011;49573;47.682;9.170;2023-04-09T15:45:20;4.55;;;2.40;;
63444;SDS011;49573;47.682;9.170;2023-04-09T15:48:07;3.42;;;2.20;;
63444;SDS011;49573;47.682;9.170;2023-04-09T15:50:53;2.78;;;2.17;;
63444;SDS011;49573;47.682;9.170;2023-04-09T15:53:41;2.88;;;2.20;;
63444;SDS011;49573;47.682;9.170;2023-04-09T15:56:28;3.90;;;2.15;;
63444;SDS011;49573;47.682;9.170;2023-04-09T15:59:14;3.10;;;2.13;;
63444;SDS011;49573;47.682;9.170;2023-04-09T16:02:01;3.50;;;2.20;;
63444;SDS011;49573;47.682;9.170;2023-04-09T16:04:50;3.03;;;2.00;;
63444;SDS011;49573;47.682;9.170;2023-04-09T16:07:36;2.83;;;2.20;;
63444;SDS011;49573;47.682;9.170;2023-04-09T16:10:23;2.53;;;2.03;;
63444;SDS011;49573;47.682;9.170;2023-04-09T16:13:09;2.60;;;2.10;;
63444;SDS011;49573;47.682;9.170;2023-04-09T16:15:55;4.15;;;2.40;;
63444;SDS011;49573;47.682;9.170;2023-04-09T16:18:41;2.63;;;2.08;;
63444;SDS011;49573;47.682;9.170;2023-04-09T16:21:31;2.78;;;2.10;;
63444;SDS011;49573;47.682;9.170;2023-04-09T16:24:17;2.35;;;1.98;;
63444;SDS011;49573;47.682;9.170;2023-04-09T16:27:03;2.75;;;2.33;;
63444;SDS011;49573;47.682;9.170;2023-04-09T16:29:49;3.15;;;2.13;;
63444;SDS011;49573;47.682;9.170;2023-04-09T16:32:36;2.80;;;2.20;;
63444;SDS011;49573;47.682;9.170;2023-04-09T16:35:22;2.45;;;2.00;;
63444;SDS011;49573;47.682;9.170;2023-04-09T16:38:10;2.47;;;2.00;;
63444;SDS011;49573;47.682;9.170;2023-04-09T16:40:57;2.60;;;1.95;;
63444;SDS011;49573;47.682;9.170;2023-04-09T16:43:43;2.90;;;2.15;;
63444;SDS011;49573;47.682;9.170;2023-04-09T16:46:34;2.22;;;2.00;;
63444;SDS011;49573;47.682;9.170;2023-04-09T16:49:20;2.50;;;1.92;;
63444;SDS011;49573;47.682;9.170;2023-04-09T16:52:07;2.25;;;1.90;;
63444;SDS011;49573;47.682;9.170;2023-04-09T16:54:54;2.78;;;2.10;;
63444;SDS011;49573;47.682;9.170;2023-04-09T16:57:41;2.22;;;1.95;;